Date,TemperatureHighF,TemperatureAvgF,TemperatureLowF,DewpointHighF,DewpointAvgF,DewpointLowF,HumidityHigh,HumidityAvg,HumidityLow,PressureMaxIn,PressureMinIn,WindSpeedMaxMPH,WindSpeedAvgMPH,GustSpeedMaxMPH,PrecipitationSumIn
2013-1-1,83,64,50,64,57,50,99,80,47,30.00,29.81,6,1,17,0.00
2013-1-2,86,68,56,74,66,56,99,93,69,29.84,29.76,5,1,13,0.00
2013-1-3,81,65,56,73,64,56,99,96,73,29.94,29.80,6,1,14,0.19
2013-1-4,70,57,52,61,57,52,99,99,97,30.06,29.93,4,2,12,0.25
2013-1-5,80,63,53,68,58,52,99,86,53,30.08,29.95,4,2,11,0.00
2013-1-6,89,68,59,74,65,59,99,92,56,29.98,29.84,3,1,10,0.00
2013-1-7,66,64,63,65,64,62,99,99,99,29.91,29.88,3,1,7,0.00
2013-1-9,91,75,71,80,70,65,99,86,69,29.98,29.63,5,1,9,0.00
2013-1-10,72,70,68,72,70,68,99,99,99,29.98,29.95,2,1,8,0.00
2013-1-11,90,74,63,71,65,62,99,79,42,29.95,29.82,4,1,11,0.00
2013-1-12,91,71,63,73,67,63,99,91,43,29.87,29.77,5,0,8,0.00
2013-1-13,89,72,63,73,66,63,99,83,49,29.86,29.75,4,1,14,0.00
2013-1-14,90,70,60,70,62,58,99,79,41,29.88,29.80,4,1,11,0.00
2013-1-15,93,70,58,71,64,58,99,84,41,29.84,29.74,4,1,13,0.00
2013-1-16,92,70,60,70,63,58,99,83,37,29.80,29.69,4,1,14,0.01
2013-1-17,73,61,51,72,58,43,99,89,63,29.86,29.68,6,2,19,0.14
2013-1-18,65,53,38,56,45,33,86,74,54,30.01,29.85,8,4,18,0.00
2013-1-19,82,65,52,62,55,47,93,72,47,29.97,29.82,4,2,13,0.00
2013-1-20,85,67,58,64,60,54,99,80,47,29.88,29.73,4,2,9,0.00
2013-1-21,83,66,57,63,58,52,96,77,49,29.80,29.72,3,1,10,0.00
2013-1-22,71,59,48,52,38,22,81,48,19,29.99,29.77,5,2,14,0.00
2013-1-23,79,56,44,44,36,26,92,54,14,30.07,29.97,3,1,11,0.00
2013-1-24,78,56,41,55,46,41,99,77,30,30.04,29.95,5,1,13,0.00
2013-1-25,86,59,44,60,48,40,99,75,22,30.01,29.88,3,0,8,0.00
2013-1-26,83,60,45,61,53,45,99,82,41,29.98,29.87,3,1,11,0.00
2013-1-27,91,66,49,64,54,49,99,74,26,30.00,29.90,3,1,11,0.00
2013-1-28,94,74,62,70,64,58,99,76,34,30.01,29.88,3,1,13,0.00
2013-1-29,96,73,60,73,66,60,99,82,39,29.92,29.77,7,2,14,0.00
2013-1-30,86,74,66,70,68,65,98,83,57,29.77,29.59,10,4,30,0.00
2013-1-31,74,58,47,70,44,30,99,65,32,29.94,29.60,7,3,18,0.11